createdAt,value
2017-10-11T05:04:29.594Z,2
2017-10-11T05:10:29.963Z,5
2017-10-11T05:13:00.117Z,8
2017-10-11T05:14:30.254Z,10
2017-10-11T05:16:01.122Z,13
2017-10-11T05:17:00.839Z,15
2017-10-11T05:17:30.423Z,17
2017-10-11T05:18:30.508Z,20
2017-10-11T05:19:30.617Z,22
2017-10-11T05:20:00.622Z,25
2017-10-11T05:20:30.647Z,28
2017-10-11T05:21:00.712Z,30
2017-10-11T05:21:30.676Z,32
2017-10-11T05:22:00.683Z,35
2017-10-11T05:23:00.834Z,37
2017-10-11T05:23:30.772Z,40
2017-10-11T05:24:00.799Z,43
2017-10-11T05:24:30.826Z,47
2017-10-11T05:25:00.880Z,50
2017-10-11T05:25:30.926Z,55
2017-10-11T05:26:00.930Z,58
2017-10-11T05:26:30.951Z,62
2017-10-11T05:27:00.994Z,65
2017-10-11T05:27:31.045Z,70
2017-10-11T05:28:01.050Z,75
2017-10-11T05:28:31.085Z,80
2017-10-11T05:29:01.116Z,85
2017-10-11T05:29:31.165Z,90
2017-10-11T05:30:01.178Z,98
2017-10-11T05:30:31.193Z,103
2017-10-11T05:31:01.273Z,110
2017-10-11T05:31:31.293Z,118
2017-10-11T05:32:01.291Z,125
2017-10-11T05:32:31.397Z,133
2017-10-11T05:33:01.381Z,140
2017-10-11T05:33:31.438Z,150
2017-10-11T05:34:01.462Z,160
2017-10-11T05:34:31.474Z,165
2017-10-11T05:35:01.540Z,175
2017-10-11T05:35:31.559Z,185
2017-10-11T05:36:01.612Z,193
2017-10-11T05:36:31.654Z,202
2017-10-11T05:37:01.633Z,212
2017-10-11T05:37:31.752Z,223
2017-10-11T05:38:01.780Z,235
2017-10-11T05:38:31.911Z,245
2017-10-11T05:39:01.815Z,257
2017-10-11T05:39:31.830Z,270
2017-10-11T05:40:01.866Z,283
2017-10-11T05:40:31.877Z,295
2017-10-11T05:41:01.959Z,310
2017-10-11T05:41:31.983Z,320
2017-10-11T05:42:02.017Z,332
2017-10-11T05:42:32.050Z,347
2017-10-11T05:43:02.075Z,362
2017-10-11T05:43:32.137Z,377
2017-10-11T05:44:02.187Z,392
2017-10-11T05:44:32.176Z,405
2017-10-11T05:45:02.262Z,420
2017-10-11T05:45:32.187Z,435
2017-10-11T05:46:02.296Z,450
2017-10-11T05:46:32.309Z,467
2017-10-11T05:47:02.323Z,480
2017-10-11T05:47:32.375Z,493
2017-10-11T05:48:02.353Z,510
2017-10-11T05:48:32.431Z,527
2017-10-11T05:49:02.459Z,542
2017-10-11T05:49:32.514Z,557
2017-10-11T05:50:02.473Z,572
2017-10-11T05:50:32.506Z,590
2017-10-11T05:51:02.592Z,608
2017-10-11T05:51:32.624Z,628
2017-10-11T05:52:02.612Z,650
2017-10-11T05:52:32.643Z,675
2017-10-11T05:53:02.689Z,700
2017-10-11T05:53:32.749Z,725
2017-10-11T05:54:02.743Z,748
2017-10-11T05:54:32.759Z,767
2017-10-11T05:55:02.826Z,787
2017-10-11T05:55:32.981Z,805
2017-10-11T05:56:02.856Z,827
2017-10-11T05:56:32.883Z,850
2017-10-11T05:57:02.936Z,868
2017-10-11T05:57:32.947Z,872
2017-10-11T05:58:03.003Z,865
2017-10-11T05:58:33.016Z,853
2017-10-11T05:59:03.045Z,848
2017-10-11T05:59:33.072Z,855
2017-10-11T06:00:03.116Z,865
2017-10-11T06:00:33.129Z,887
2017-10-11T06:01:03.900Z,913
2017-10-11T06:01:33.927Z,943
2017-10-11T06:02:04.000Z,967
2017-10-11T06:02:33.987Z,992
2017-10-11T06:03:04.020Z,1025
2017-10-11T06:03:34.061Z,1070
2017-10-11T06:04:04.076Z,1105
2017-10-11T06:04:34.111Z,1123
2017-10-11T06:05:34.177Z,1100
2017-10-11T06:06:04.201Z,1063
2017-10-11T06:06:34.243Z,1052
2017-10-11T06:07:04.304Z,1065
2017-10-11T06:07:34.304Z,1070
2017-10-11T06:08:04.338Z,1082
2017-10-11T06:08:34.430Z,1097
2017-10-11T06:09:04.428Z,1135
2017-10-11T06:09:34.432Z,1217
2017-10-11T06:10:04.537Z,1310
2017-10-11T06:10:34.569Z,1352
2017-10-11T06:11:04.596Z,1307
2017-10-11T06:11:34.628Z,1220
2017-10-11T06:12:04.637Z,1142
2017-10-11T06:12:34.676Z,1115
2017-10-11T06:13:04.711Z,1133
2017-10-11T06:13:34.730Z,1207
2017-10-11T06:14:04.754Z,1282
2017-10-11T06:14:34.781Z,1335
2017-10-11T06:15:34.874Z,1305
2017-10-11T06:16:04.903Z,1273
2017-10-11T06:16:34.901Z,1280
2017-10-11T06:17:04.941Z,1345
2017-10-11T06:17:35.002Z,1442
2017-10-11T06:18:05.022Z,1538
2017-10-11T06:18:35.039Z,1598
2017-10-11T06:19:05.080Z,1648
2017-10-11T06:19:35.140Z,1708
2017-10-11T06:20:05.161Z,1768
2017-10-11T06:20:35.195Z,1792
2017-10-11T06:21:05.233Z,1725
2017-10-11T06:21:35.265Z,1588
2017-10-11T06:22:05.266Z,1457
2017-10-11T06:22:35.300Z,1395
2017-10-11T06:23:05.363Z,1363
2017-10-11T06:23:35.306Z,1348
2017-10-11T06:24:05.352Z,1358
2017-10-11T06:24:35.411Z,1395
2017-10-11T06:25:06.185Z,1460
2017-10-11T06:25:35.478Z,1560
2017-10-11T06:26:05.516Z,1652
2017-10-11T06:26:35.540Z,1727
2017-10-11T06:27:05.540Z,1760
2017-10-11T06:27:35.614Z,1765
2017-10-11T06:28:05.596Z,1792
2017-10-11T06:28:35.622Z,1845
2017-10-11T06:29:05.722Z,1952
2017-10-11T06:29:35.744Z,2048
2017-10-11T06:30:05.704Z,2025
2017-10-11T06:30:35.785Z,1933
2017-10-11T06:31:05.785Z,1915
2017-10-11T06:31:35.822Z,1993
2017-10-11T06:32:05.912Z,2117
2017-10-11T06:32:35.880Z,2258
2017-10-11T06:33:05.913Z,2335
2017-10-11T06:33:35.920Z,2330
2017-10-11T06:34:05.984Z,2285
2017-10-11T06:34:35.984Z,2240
2017-10-11T06:35:06.012Z,2182
2017-10-11T06:35:36.079Z,2128
2017-10-11T06:36:06.072Z,2145
2017-10-11T06:36:36.122Z,2197
2017-10-11T06:37:06.132Z,2255
2017-10-11T06:37:36.185Z,2297
2017-10-11T06:38:06.250Z,2315
2017-10-11T06:38:36.225Z,2282
2017-10-11T06:39:06.257Z,2248
2017-10-11T06:39:36.320Z,2265
2017-10-11T06:40:06.405Z,2297
2017-10-11T06:40:36.500Z,2278
2017-10-11T06:41:06.391Z,2233
2017-10-11T06:41:36.479Z,2265
2017-10-11T06:42:06.522Z,2400
2017-10-11T06:42:36.511Z,2623
2017-10-11T06:43:06.565Z,2885
2017-10-11T06:43:36.557Z,3163
2017-10-11T06:44:06.612Z,3410
2017-10-11T06:44:36.663Z,3668
2017-10-11T06:45:06.693Z,3720
2017-10-11T06:45:36.754Z,3570
2017-10-11T06:46:06.724Z,3420
2017-10-11T06:46:36.743Z,3377
2017-10-11T06:47:06.769Z,3435
2017-10-11T06:47:36.793Z,3540
2017-10-11T06:48:06.830Z,3625
2017-10-11T06:48:36.858Z,3585
2017-10-11T06:49:06.890Z,3395
2017-10-11T06:49:36.913Z,3227
2017-10-11T06:50:06.971Z,3150
2017-10-11T06:50:37.226Z,3095
2017-10-11T06:51:07.081Z,3013
2017-10-11T06:51:37.066Z,2957
2017-10-11T06:52:07.069Z,2953
2017-10-11T06:52:37.101Z,2848
2017-10-11T06:53:07.162Z,2560
2017-10-11T06:53:37.171Z,2233
2017-10-11T06:54:07.219Z,1995
2017-10-11T06:54:37.219Z,1868
2017-10-11T06:55:07.263Z,1892
2017-10-11T06:55:37.380Z,2065
2017-10-11T06:56:07.345Z,2237
2017-10-11T06:56:37.405Z,2357
2017-10-11T06:57:07.389Z,2440
2017-10-11T06:57:37.427Z,2563
2017-10-11T06:58:07.511Z,2675
2017-10-11T06:58:37.534Z,2668
2017-10-11T06:59:07.577Z,2603
2017-10-11T06:59:37.606Z,2650
2017-10-11T07:00:07.611Z,2842
2017-10-11T07:00:37.710Z,3010
2017-10-11T07:01:07.685Z,3055
2017-10-11T07:01:37.733Z,3103
2017-10-11T07:02:07.768Z,3152
2017-10-11T07:02:37.789Z,3257
2017-10-11T07:03:07.838Z,3412
2017-10-11T07:03:37.820Z,3535
2017-10-11T07:04:07.855Z,3653
2017-10-11T07:04:37.894Z,3703
2017-10-11T07:05:07.964Z,3617
2017-10-11T07:05:38.003Z,3538
2017-10-11T07:06:08.017Z,3440
2017-10-11T07:06:38.056Z,3430
2017-10-11T07:07:08.032Z,3570
2017-10-11T07:07:38.088Z,3808
2017-10-11T07:08:08.150Z,4027
2017-10-11T07:08:38.171Z,4177
2017-10-11T07:09:08.214Z,4290
2017-10-11T07:09:38.192Z,4378
2017-10-11T07:10:08.293Z,4498
2017-10-11T07:10:38.366Z,4700
2017-10-11T07:11:08.319Z,4865
2017-10-11T07:11:38.354Z,5012
2017-10-11T07:12:08.387Z,5258
2017-10-11T07:12:38.424Z,5642
2017-10-11T07:13:08.441Z,6075
2017-10-11T07:13:38.469Z,6535
2017-10-11T07:14:08.479Z,6900
2017-10-11T07:14:38.520Z,6988
2017-10-11T07:15:08.571Z,6977
2017-10-11T07:15:38.611Z,6885
2017-10-11T07:16:08.720Z,6833
2017-10-11T07:16:38.685Z,6950
2017-10-11T07:17:08.687Z,7172
2017-10-11T07:17:38.685Z,7432
2017-10-11T07:18:08.718Z,7510
2017-10-11T07:18:38.830Z,7552
2017-10-11T07:19:08.799Z,7580
2017-10-11T07:19:38.819Z,7495
2017-10-11T07:20:08.857Z,7380
2017-10-11T07:20:38.950Z,7852
2017-10-11T07:21:08.936Z,7770
2017-10-11T07:21:38.955Z,7633
2017-10-11T07:22:08.973Z,7748
2017-10-11T07:22:39.033Z,7888
2017-10-11T07:23:09.026Z,8720
2017-10-11T07:23:39.080Z,10178
2017-10-11T07:24:09.128Z,9605
2017-10-11T07:24:39.125Z,8362
2017-10-11T07:25:09.168Z,8235
2017-10-11T07:25:39.238Z,8702
2017-10-11T07:26:09.440Z,8250
2017-10-11T07:26:39.262Z,8147
2017-10-11T07:27:09.279Z,7513
2017-10-11T07:27:39.321Z,7133
2017-10-11T07:28:09.385Z,6960
2017-10-11T07:28:39.386Z,6482
2017-10-11T07:29:09.422Z,6020
2017-10-11T07:29:39.480Z,5560
2017-10-11T07:30:09.519Z,5140
2017-10-11T07:30:39.565Z,4748
2017-10-11T07:31:09.648Z,4490
2017-10-11T07:31:39.593Z,4375
2017-10-11T07:32:09.643Z,4102
2017-10-11T07:32:39.661Z,3705
2017-10-11T07:33:09.692Z,3623
2017-10-11T07:33:39.721Z,3668
2017-10-11T07:34:09.764Z,3817
2017-10-11T07:34:39.807Z,4010
2017-10-11T07:35:09.828Z,4335
2017-10-11T07:35:39.822Z,4802
2017-10-11T07:36:09.875Z,5143
2017-10-11T07:36:39.887Z,5180
2017-10-11T07:37:09.920Z,5147
2017-10-11T07:37:39.958Z,5000
2017-10-11T07:38:09.986Z,4795
2017-10-11T07:38:40.012Z,4595
2017-10-11T07:39:10.048Z,4490
2017-10-11T07:39:40.119Z,4583
2017-10-11T07:40:10.122Z,4723
2017-10-11T07:40:40.151Z,4753
2017-10-11T07:41:10.279Z,4583
2017-10-11T07:41:40.277Z,4603
2017-10-11T07:42:10.233Z,4663
2017-10-11T07:42:40.296Z,4988
2017-10-11T07:43:10.342Z,5443
2017-10-11T07:43:40.356Z,5437
2017-10-11T07:44:10.404Z,5600
2017-10-11T07:44:40.454Z,5900
2017-10-11T07:45:10.487Z,6193
2017-10-11T07:45:40.519Z,6458
2017-10-11T07:46:10.684Z,6713
2017-10-11T07:46:40.557Z,7007
2017-10-11T07:47:10.609Z,7247
2017-10-11T07:47:40.656Z,7508
2017-10-11T07:48:10.644Z,7720
2017-10-11T07:48:40.698Z,7927
2017-10-11T07:49:10.763Z,8098
2017-10-11T07:49:40.715Z,8085
2017-10-11T07:50:10.779Z,7805
2017-10-11T07:50:40.827Z,7592
2017-10-11T07:51:10.968Z,7835
2017-10-11T07:51:40.931Z,8200
2017-10-11T07:52:10.989Z,8755
2017-10-11T07:52:40.964Z,9340
2017-10-11T07:53:11.046Z,9878
2017-10-11T07:53:41.028Z,10262
2017-10-11T07:54:11.102Z,10423
2017-10-11T07:54:41.122Z,10410
2017-10-11T07:55:11.147Z,10447
2017-10-11T07:55:41.172Z,10390
2017-10-11T07:56:11.349Z,10160
2017-10-11T07:56:41.223Z,9970
2017-10-11T07:57:11.221Z,9710
2017-10-11T07:57:41.329Z,9655
2017-10-11T07:58:11.300Z,9653
2017-10-11T07:58:41.329Z,9655
2017-10-11T07:59:11.418Z,9625
2017-10-11T07:59:41.429Z,9452
2017-10-11T08:00:11.462Z,9250
2017-10-11T08:00:41.755Z,9122
2017-10-11T08:01:11.654Z,9060
2017-10-11T08:01:41.523Z,8905
2017-10-11T08:02:11.728Z,8803
2017-10-11T08:02:41.618Z,8818
2017-10-11T08:03:11.673Z,8850
2017-10-11T08:03:41.711Z,8835
2017-10-11T08:04:11.712Z,8782
2017-10-11T08:04:41.698Z,8743
2017-10-11T08:05:11.746Z,8720
2017-10-11T08:05:41.771Z,8740
2017-10-11T08:06:11.878Z,8855
2017-10-11T08:06:41.831Z,8957
2017-10-11T08:07:11.859Z,9070
2017-10-11T08:07:41.879Z,9278
2017-10-11T08:08:11.930Z,9358
2017-10-11T08:08:41.975Z,9473
2017-10-11T08:09:11.977Z,9467
2017-10-11T08:09:42.013Z,9575
2017-10-11T08:10:12.033Z,9795
2017-10-11T08:10:42.110Z,9947
2017-10-11T08:11:12.155Z,9975
2017-10-11T08:11:42.145Z,9920
2017-10-11T08:12:12.223Z,9808
2017-10-11T08:12:42.208Z,9667
2017-10-11T08:13:12.235Z,9482
2017-10-11T08:13:42.266Z,9262
2017-10-11T08:14:12.341Z,9270
2017-10-11T08:14:42.366Z,9515
2017-10-11T08:15:12.386Z,9955
2017-10-11T08:15:42.390Z,10580
2017-10-11T08:16:12.565Z,10772
2017-10-11T08:16:42.488Z,11023
2017-10-11T08:17:12.487Z,11235
2017-10-11T08:17:42.549Z,11445
2017-10-11T08:18:12.551Z,11610
2017-10-11T08:18:42.624Z,11408
2017-10-11T08:19:12.613Z,10710
2017-10-11T08:19:42.715Z,9682
2017-10-11T08:20:12.720Z,8615
2017-10-11T08:20:42.753Z,7828
2017-10-11T08:21:12.762Z,7307
2017-10-11T08:21:42.826Z,6980
2017-10-11T08:22:12.816Z,6870
2017-10-11T08:22:42.844Z,6953
2017-10-11T08:23:12.884Z,7260
2017-10-11T08:23:42.908Z,7783
2017-10-11T08:24:12.925Z,8360
2017-10-11T08:24:42.980Z,8925
2017-10-11T08:25:12.985Z,9555
2017-10-11T08:25:43.021Z,10147
2017-10-11T08:26:13.056Z,10562
2017-10-11T08:26:43.095Z,10703
2017-10-11T08:27:13.123Z,10832
2017-10-11T08:27:43.143Z,11027
2017-10-11T08:28:13.180Z,11180
2017-10-11T08:28:43.236Z,11265
2017-10-11T08:29:13.242Z,11165
2017-10-11T08:29:43.349Z,11063
2017-10-11T08:30:13.348Z,11010
2017-10-11T08:30:43.441Z,11020
2017-10-11T08:31:13.460Z,11010
2017-10-11T08:31:43.689Z,10920
2017-10-11T08:32:13.492Z,10918
2017-10-11T08:32:43.541Z,10907
2017-10-11T08:33:13.496Z,10838
2017-10-11T08:33:43.616Z,10738
2017-10-11T08:34:13.558Z,10757
2017-10-11T08:34:43.605Z,10755
2017-10-11T08:35:13.696Z,10772
2017-10-11T08:35:43.709Z,10985
2017-10-11T08:36:13.721Z,11310
2017-10-11T08:36:43.832Z,11590
2017-10-11T08:37:13.825Z,11648
2017-10-11T08:37:43.828Z,11725
2017-10-11T08:38:13.948Z,11377
2017-10-11T08:38:43.907Z,10960
2017-10-11T08:39:13.913Z,10770
2017-10-11T08:39:43.962Z,10905
2017-10-11T08:40:14.001Z,11023
2017-10-11T08:40:44.034Z,11300
2017-10-11T08:41:14.068Z,11372
2017-10-11T08:41:44.161Z,11380
2017-10-11T08:42:14.113Z,11235
2017-10-11T08:42:44.161Z,11015
2017-10-11T08:43:14.198Z,10830
2017-10-11T08:43:44.223Z,10387
2017-10-11T08:44:14.280Z,9907
2017-10-11T08:44:44.284Z,9715
2017-10-11T08:45:14.297Z,9823
2017-10-11T08:45:44.355Z,10080
2017-10-11T08:46:14.358Z,10265
2017-10-11T08:46:44.488Z,10535
2017-10-11T08:47:14.455Z,10685
2017-10-11T08:47:44.468Z,10845
2017-10-11T08:48:14.488Z,10892
2017-10-11T08:48:44.542Z,10937
2017-10-11T08:49:14.539Z,10867
2017-10-11T08:49:44.556Z,10703
2017-10-11T08:50:14.617Z,10470
2017-10-11T08:50:44.623Z,10217
2017-10-11T08:51:14.683Z,9988
2017-10-11T08:51:44.735Z,9730
2017-10-11T08:52:14.756Z,9418
2017-10-11T08:52:44.794Z,9368
2017-10-11T08:53:14.813Z,9407
2017-10-11T08:53:44.830Z,9497
2017-10-11T08:54:14.874Z,9545
2017-10-11T08:54:44.894Z,9525
2017-10-11T08:55:14.941Z,9485
2017-10-11T08:56:14.987Z,9450
2017-10-11T08:56:45.018Z,9400
2017-10-11T08:57:15.051Z,9310
2017-10-11T08:57:45.074Z,9188
2017-10-11T08:58:15.280Z,9175
2017-10-11T08:58:45.145Z,9053
2017-10-11T08:59:15.188Z,8860
2017-10-11T08:59:45.208Z,8948
2017-10-11T09:00:15.238Z,9350
2017-10-11T09:00:45.318Z,9868
2017-10-11T09:01:15.353Z,10385
2017-10-11T09:01:45.333Z,10725
2017-10-11T09:02:15.387Z,11020
2017-10-11T09:02:45.469Z,11102
2017-10-11T09:03:15.493Z,11207
2017-10-11T09:03:45.480Z,11530
2017-10-11T09:04:15.537Z,11590
2017-10-11T09:04:45.581Z,11670
2017-10-11T09:05:15.559Z,11650
2017-10-11T09:05:45.642Z,11617
2017-10-11T09:06:15.665Z,11518
2017-10-11T09:06:46.517Z,11380
2017-10-11T09:07:15.733Z,11270
2017-10-11T09:07:45.752Z,11250
2017-10-11T09:08:15.777Z,11132
2017-10-11T09:08:45.807Z,11053
2017-10-11T09:09:15.857Z,11020
2017-10-11T09:09:45.863Z,10985
2017-10-11T09:10:15.894Z,10898
2017-10-11T09:10:45.935Z,10905
2017-10-11T09:11:15.980Z,10813
2017-10-11T09:11:46.025Z,10832
2017-10-11T09:12:16.022Z,10918
2017-10-11T09:12:46.051Z,10817
2017-10-11T09:13:16.069Z,10663
2017-10-11T09:13:46.107Z,10562
2017-10-11T09:14:16.203Z,10672
2017-10-11T09:14:46.236Z,10595
2017-10-11T09:15:16.272Z,10457
2017-10-11T09:15:46.313Z,10472
2017-10-11T09:16:16.383Z,10382
2017-10-11T09:16:46.371Z,10193
2017-10-11T09:17:16.445Z,10020
2017-10-11T09:17:46.512Z,9965
2017-10-11T09:18:16.482Z,9945
2017-10-11T09:18:46.553Z,10010
2017-10-11T09:19:16.564Z,9880
2017-10-11T09:19:46.639Z,9772
2017-10-11T09:20:16.666Z,9712
2017-10-11T09:20:46.698Z,9750
2017-10-11T09:21:16.686Z,9915
2017-10-11T09:21:46.802Z,9965
2017-10-11T09:22:16.769Z,10087
2017-10-11T09:22:46.746Z,9767
2017-10-11T09:23:16.849Z,9878
2017-10-11T09:23:46.900Z,10067
2017-10-11T09:24:16.908Z,10985
2017-10-11T09:24:46.906Z,11155
2017-10-11T09:25:16.963Z,10860
2017-10-11T09:25:47.007Z,11788
2017-10-11T09:26:16.982Z,13940
2017-10-11T09:26:47.106Z,15035
2017-10-11T09:27:17.071Z,14750
2017-10-11T09:27:47.083Z,18983
2017-10-11T09:28:17.144Z,19225
2017-10-11T09:28:47.122Z,17192
2017-10-11T09:29:17.231Z,16813
2017-10-11T09:29:47.232Z,14885
2017-10-11T09:30:17.223Z,17265
2017-10-11T09:30:47.299Z,22682
2017-10-11T09:31:17.357Z,14218
2017-10-11T09:31:47.614Z,13912
2017-10-11T09:32:17.406Z,14402
2017-10-11T09:32:47.432Z,15818
2017-10-11T09:33:17.479Z,16277
2017-10-11T09:33:47.498Z,17282
2017-10-11T09:34:17.514Z,14370
2017-10-11T09:34:47.514Z,17462
2017-10-11T09:35:17.540Z,12742
2017-10-11T09:35:47.562Z,11158
2017-10-11T09:36:17.648Z,12278
2017-10-11T09:36:47.756Z,13695
2017-10-11T09:37:17.676Z,15240
2017-10-11T09:37:47.750Z,15548
2017-10-11T09:38:17.736Z,17130
2017-10-11T09:38:47.754Z,20235
2017-10-11T09:39:17.804Z,21500
2017-10-11T09:39:47.822Z,21518
2017-10-11T09:40:17.851Z,19180
2017-10-11T09:40:47.936Z,17570
2017-10-11T09:41:17.925Z,15988
2017-10-11T09:41:48.016Z,16372
2017-10-11T09:42:17.978Z,16387
2017-10-11T09:42:48.040Z,15343
2017-10-11T09:43:18.090Z,16415
2017-10-11T09:43:48.085Z,23327
2017-10-11T09:44:18.132Z,11955
2017-10-11T09:44:48.152Z,9718
2017-10-11T09:45:18.175Z,8280
2017-10-11T09:45:48.220Z,6868
2017-10-11T09:46:18.276Z,6187
2017-10-11T09:46:48.327Z,6320
2017-10-11T09:47:18.348Z,6548
2017-10-11T09:47:48.331Z,7363
2017-10-11T09:48:18.389Z,8032
2017-10-11T09:48:48.460Z,8143
2017-10-11T09:49:18.467Z,8732
2017-10-11T09:49:48.465Z,9575
2017-10-11T09:50:18.494Z,11340
2017-10-11T09:50:48.580Z,12205
2017-10-11T09:51:18.586Z,12690
2017-10-11T09:51:48.714Z,13352
2017-10-11T09:52:18.645Z,14545
2017-10-11T09:52:48.692Z,15002
2017-10-11T09:53:18.758Z,14248
2017-10-11T09:53:48.730Z,11960
2017-10-11T09:54:18.745Z,12802
2017-10-11T09:54:48.842Z,13202
2017-10-11T09:55:18.828Z,11875
2017-10-11T09:55:49.404Z,10133
2017-10-11T09:56:19.478Z,9538
2017-10-11T09:56:49.625Z,9670
2017-10-11T09:57:19.523Z,10342
2017-10-11T09:57:49.515Z,9197
2017-10-11T09:58:19.529Z,9403
2017-10-11T09:58:49.582Z,9485
2017-10-11T09:59:19.658Z,10100
2017-10-11T09:59:49.684Z,9340
2017-10-11T10:00:19.718Z,8117
2017-10-11T10:00:49.746Z,7367
2017-10-11T10:01:19.753Z,7235
2017-10-11T10:01:49.932Z,7825
2017-10-11T10:02:19.837Z,8023
2017-10-11T10:02:49.809Z,7238
2017-10-11T10:03:19.918Z,6795
2017-10-11T10:03:49.933Z,6260
2017-10-11T10:04:19.988Z,6400
2017-10-11T10:04:50.003Z,7892
2017-10-11T10:05:20.049Z,8895
2017-10-11T10:05:50.019Z,7705
2017-10-11T10:06:20.077Z,7283
2017-10-11T10:06:50.176Z,6530
2017-10-11T10:07:20.175Z,6587
2017-10-11T10:07:50.134Z,6863
2017-10-11T10:08:20.240Z,6960
2017-10-11T10:08:50.194Z,7583
2017-10-11T10:09:20.293Z,8113
2017-10-11T10:09:50.324Z,6735
2017-10-11T10:10:20.348Z,6550
2017-10-11T10:10:50.401Z,7022
2017-10-11T10:11:20.388Z,6080
2017-10-11T10:11:50.472Z,4877
2017-10-11T10:12:20.427Z,4693
2017-10-11T10:12:50.493Z,4967
2017-10-11T10:13:20.473Z,5350
2017-10-11T10:13:50.551Z,5465
2017-10-11T10:14:20.553Z,5760
2017-10-11T10:14:50.567Z,6268
2017-10-11T10:15:20.627Z,6632
2017-10-11T10:15:50.658Z,6725
2017-10-11T10:16:20.677Z,6595
2017-10-11T10:16:50.810Z,7305
2017-10-11T10:17:20.752Z,7937
2017-10-11T10:17:50.768Z,7675
2017-10-11T10:18:20.846Z,8025
2017-10-11T10:18:50.836Z,8780
2017-10-11T10:19:20.903Z,8587
2017-10-11T10:19:50.922Z,8642
2017-10-11T10:20:20.945Z,8800
2017-10-11T10:20:50.963Z,8503
2017-10-11T10:21:21.021Z,8653
2017-10-11T10:21:52.546Z,8528
2017-10-11T10:22:21.100Z,8695
2017-10-11T10:22:51.087Z,9527
2017-10-11T10:23:21.175Z,10715
2017-10-11T10:23:51.215Z,10675
2017-10-11T10:24:21.231Z,9570
2017-10-11T10:24:51.219Z,9740
2017-10-11T10:25:21.281Z,11165
2017-10-11T10:25:51.295Z,12155
2017-10-11T10:26:21.388Z,12022
2017-10-11T10:26:51.490Z,11432
2017-10-11T10:27:21.387Z,10565
2017-10-11T10:27:51.452Z,9283
2017-10-11T10:28:21.472Z,7993
2017-10-11T10:28:51.481Z,7230
2017-10-11T10:29:21.510Z,7138
2017-10-11T10:29:51.571Z,7515
2017-10-11T10:30:21.580Z,8747
2017-10-11T10:30:51.589Z,10190
2017-10-11T10:31:21.631Z,10843
2017-10-11T10:31:51.805Z,11130
2017-10-11T10:32:21.699Z,10823
2017-10-11T10:32:51.743Z,10135
2017-10-11T10:33:21.743Z,10307
2017-10-11T10:33:51.836Z,10375
2017-10-11T10:34:21.949Z,11077
2017-10-11T10:34:51.858Z,10405
2017-10-11T10:35:21.889Z,10513
2017-10-11T10:35:51.910Z,10020
2017-10-11T10:36:21.943Z,9260
2017-10-11T10:36:52.043Z,9280
2017-10-11T10:37:22.031Z,9890
2017-10-11T10:37:52.036Z,9767
2017-10-11T10:38:22.074Z,8893
2017-10-11T10:38:52.090Z,9005
2017-10-11T10:39:22.141Z,8975
2017-10-11T10:39:52.195Z,8445
2017-10-11T10:40:22.192Z,8475
2017-10-11T10:40:52.215Z,9902
2017-10-11T10:41:22.297Z,11147
2017-10-11T10:41:52.345Z,11218
2017-10-11T10:42:22.305Z,10335
2017-10-11T10:42:52.388Z,9797
2017-10-11T10:43:22.407Z,9772
2017-10-11T10:43:52.461Z,10630
2017-10-11T10:44:22.490Z,10267
2017-10-11T10:44:52.533Z,10155
2017-10-11T10:45:22.565Z,9900
2017-10-11T10:45:52.592Z,10050
2017-10-11T10:46:22.631Z,9990
2017-10-11T10:46:52.703Z,9002
2017-10-11T10:47:22.670Z,8890
2017-10-11T10:47:52.715Z,10175
2017-10-11T10:48:22.739Z,12583
2017-10-11T10:48:52.794Z,13080
2017-10-11T10:49:22.841Z,11977
2017-10-11T10:49:52.838Z,12390
2017-10-11T10:50:22.858Z,12202
2017-10-11T10:50:52.916Z,12302
2017-10-11T10:51:22.924Z,13832
2017-10-11T10:51:53.058Z,15270
2017-10-11T10:52:22.999Z,16805
2017-10-11T10:52:53.520Z,16223
2017-10-11T10:53:23.573Z,14710
2017-10-11T10:53:53.594Z,13845
2017-10-11T10:54:23.577Z,17360
2017-10-11T10:54:53.673Z,13445
2017-10-11T10:55:23.658Z,14965
2017-10-11T10:55:53.681Z,15570
2017-10-11T10:56:23.714Z,15202
2017-10-11T10:56:53.860Z,14557
2017-10-11T10:57:23.757Z,15065
2017-10-11T10:57:53.789Z,20440
2017-10-11T10:58:23.831Z,12827
2017-10-11T10:58:53.859Z,11915
2017-10-11T10:59:23.904Z,12178
2017-10-11T10:59:53.946Z,11948
2017-10-11T11:00:23.965Z,11700
2017-10-11T11:00:53.995Z,12947
2017-10-11T11:01:24.023Z,14218
2017-10-11T11:01:54.069Z,14282
2017-10-11T11:02:24.149Z,13367
2017-10-11T11:02:54.126Z,12785
2017-10-11T11:03:24.152Z,17195
2017-10-11T11:03:54.193Z,12890
2017-10-11T11:04:24.229Z,11377
2017-10-11T11:04:54.290Z,10135
2017-10-11T11:05:24.297Z,9570
2017-10-11T11:05:54.323Z,8965
2017-10-11T11:06:24.380Z,8920
2017-10-11T11:06:54.420Z,9585
2017-10-11T11:07:24.556Z,9845
2017-10-11T11:07:54.493Z,10592
2017-10-11T11:08:24.500Z,12675
2017-10-11T11:08:54.588Z,12178
2017-10-11T11:09:24.580Z,13040
2017-10-11T11:09:54.639Z,10900
2017-10-11T11:10:24.666Z,9617
2017-10-11T11:10:54.631Z,8500
2017-10-11T11:11:24.715Z,8642
2017-10-11T11:11:54.708Z,8972
2017-10-11T11:12:25.000Z,9005
2017-10-11T11:12:54.777Z,8760
2017-10-11T11:13:24.798Z,7910
2017-10-11T11:13:54.856Z,7160
2017-10-11T11:14:24.859Z,7150
2017-10-11T11:14:54.886Z,9133
2017-10-11T11:15:24.926Z,8580
2017-10-11T11:15:54.978Z,8813
2017-10-11T11:16:24.976Z,8533
2017-10-11T11:16:55.021Z,9202
2017-10-11T11:17:25.068Z,10693
2017-10-11T11:17:55.101Z,12230
2017-10-11T11:18:25.166Z,12240
2017-10-11T11:18:55.138Z,11408
2017-10-11T11:19:25.192Z,11077
2017-10-11T11:19:55.256Z,10892
2017-10-11T11:20:25.239Z,9585
2017-10-11T11:20:55.255Z,10193
2017-10-11T11:21:25.319Z,14912
2017-10-11T11:21:55.328Z,19200
2017-10-11T11:22:25.397Z,12825
2017-10-11T11:22:55.442Z,14240
2017-10-11T11:23:25.434Z,26370
2017-10-11T11:23:55.508Z,14050
2017-10-11T11:24:25.481Z,10480
2017-10-11T11:24:55.549Z,10603
2017-10-11T11:25:25.577Z,11515
2017-10-11T11:25:55.601Z,20893
2017-10-11T11:26:25.663Z,25300
2017-10-11T11:26:55.699Z,23098
2017-10-11T11:27:25.727Z,18983
2017-10-11T11:27:55.746Z,27525
2017-10-11T11:28:25.798Z,32593
2017-10-11T11:28:55.762Z,34403
2017-10-11T11:29:25.849Z,20302
2017-10-11T11:29:55.829Z,20512
2017-10-11T11:30:25.895Z,31910
2017-10-11T11:30:55.968Z,30110
2017-10-11T11:31:25.981Z,19573
2017-10-11T11:31:55.998Z,18047
2017-10-11T11:32:26.015Z,17480
2017-10-11T11:32:56.068Z,14860
2017-10-11T11:33:26.097Z,12620
2017-10-11T11:33:56.116Z,12802
2017-10-11T11:34:26.188Z,16973
2017-10-11T11:34:56.220Z,16780
2017-10-11T11:35:26.175Z,16740
2017-10-11T11:35:56.284Z,14780
2017-10-11T11:36:26.291Z,13335
2017-10-11T11:36:56.340Z,10852
2017-10-11T11:37:26.334Z,10375
2017-10-11T11:37:56.399Z,10367
2017-10-11T11:38:26.415Z,10090
2017-10-11T11:38:56.462Z,10262
2017-10-11T11:39:26.471Z,9360
2017-10-11T11:39:56.544Z,9710
2017-10-11T11:40:26.559Z,10253
2017-10-11T11:40:56.534Z,10085
2017-10-11T11:41:26.578Z,8900
2017-10-11T11:41:56.612Z,8042
2017-10-11T11:42:26.695Z,7667
2017-10-11T11:42:56.703Z,7438
2017-10-11T11:43:26.691Z,7155
2017-10-11T11:43:56.717Z,7000
2017-10-11T11:44:26.827Z,7052
2017-10-11T11:44:56.781Z,6842
2017-10-11T11:45:26.820Z,6652
2017-10-11T11:45:56.848Z,6610
2017-10-11T11:46:26.896Z,6770
2017-10-11T11:46:56.897Z,6720
2017-10-11T11:47:26.990Z,6560
2017-10-11T11:47:57.036Z,6465
2017-10-11T11:48:26.995Z,6568
2017-10-11T11:48:57.042Z,6623
2017-10-11T11:49:27.083Z,6587
2017-10-11T11:49:57.105Z,6448
2017-10-11T11:50:27.160Z,6155
2017-10-11T11:50:57.149Z,5842
2017-10-11T11:51:27.232Z,5435
2017-10-11T11:51:57.272Z,5095
2017-10-11T11:52:27.324Z,4970
2017-10-11T11:52:57.303Z,5147
2017-10-11T11:53:27.375Z,5288
2017-10-11T11:53:57.370Z,5180
2017-10-11T11:54:27.455Z,4900